NATURA VA

 INFORMACIÓN METAR y TAF
METAR FOR LEDA
ADDS - METARS form results

(0035 UTC 20 May 2019)
Data provider http://aviationweather.gov/metar/data/
 
METAR text: LEDA 200030Z AUTO 20005KT 9999 NCD 08/06 Q1011
Conditions at: LEDA (LLEIDA-ALGUAIRE , ES) observed 0030 UTC 20 May 2019
Temperature: 8.0°C (46°F)
Dewpoint: 6.0°C (43°F) [RH = 87%]
Pressure (altimeter): 29.85 inches Hg (1011.0 mb)
Winds: from the SSW (200 degrees) at 6 MPH (5 knots; 2.6 m/s)
Visibility: 6 or more miles (10+ km)
Ceiling: at least 12,000 feet AGL
Clouds: sky clear below 12,000 feet AGL
Weather: no significant weather observed at this time

METAR text: LEDA 200000Z AUTO 24007KT 210V270 9999 NCD 09/07 Q1011
Conditions at: LEDA (LLEIDA-ALGUAIRE , ES) observed 0000 UTC 20 May 2019
Temperature: 9.0°C (48°F)
Dewpoint: 7.0°C (45°F) [RH = 87%]
Pressure (altimeter): 29.85 inches Hg (1011.0 mb)
Winds: from the WSW (240 degrees) at 8 MPH (7 knots; 3.6 m/s)
Visibility: 6 or more miles (10+ km)
Ceiling: at least 12,000 feet AGL
Clouds: sky clear below 12,000 feet AGL
Weather: no significant weather observed at this time

 MAPA DE AEROPUERTO

 INFORMACIÓN DE PISTA

 FRECUANCIAS DEL AEROPUERTO

 RADIO AYUDAS DEL AEROPUERTO



Powered by Virtual Airlines Manager [v2.6.2]